createdAt,value
2019-05-01T00:00:18.064Z,11.40
2019-05-01T00:03:07.091Z,11.40
2019-05-01T00:05:38.406Z,11.30
2019-05-01T00:08:09.056Z,11.30
2019-05-01T00:10:38.209Z,11.30
2019-05-01T00:13:08.208Z,11.30
2019-05-01T00:15:39.310Z,11.30
2019-05-01T00:18:08.301Z,11.30
2019-05-01T00:20:37.415Z,11.30
2019-05-01T00:23:06.397Z,11.30
2019-05-01T00:25:35.331Z,11.20
2019-05-01T00:28:05.089Z,11.20
2019-05-01T00:30:35.854Z,11.20
2019-05-01T00:33:05.286Z,11.20
2019-05-01T00:35:34.189Z,11.20
2019-05-01T00:38:03.162Z,11.20
2019-05-01T00:40:32.078Z,11.20
2019-05-01T00:43:00.986Z,11.20
2019-05-01T00:45:29.798Z,11.20
2019-05-01T00:47:58.717Z,11.10
2019-05-01T00:50:27.585Z,11.10
2019-05-01T00:52:56.495Z,11.10
2019-05-01T00:55:53.714Z,11.10
2019-05-01T00:58:36.545Z,11.10
2019-05-01T01:01:27.657Z,11.10
2019-05-01T01:03:57.129Z,11.10
2019-05-01T01:06:26.084Z,11.00
2019-05-01T01:08:54.965Z,11.00
2019-05-01T01:11:24.052Z,11.00
2019-05-01T01:13:53.107Z,11.00
2019-05-01T01:16:21.929Z,11.00
2019-05-01T01:18:50.869Z,11.00
2019-05-01T01:21:19.749Z,10.90
2019-05-01T01:23:49.399Z,10.90
2019-05-01T01:26:18.166Z,10.90
2019-05-01T01:28:47.219Z,10.90
2019-05-01T01:31:16.328Z,10.90
2019-05-01T01:33:45.186Z,10.90
2019-05-01T01:36:14.092Z,10.90
2019-05-01T01:38:43.053Z,10.90
2019-05-01T01:41:12.418Z,10.80
2019-05-01T01:44:09.915Z,10.80
2019-05-01T01:46:39.493Z,10.80
2019-05-01T01:49:08.969Z,10.80
2019-05-01T01:51:38.153Z,10.80
2019-05-01T01:54:07.750Z,10.70
2019-05-01T01:56:36.870Z,10.70
2019-05-01T01:59:06.174Z,10.70
2019-05-01T02:01:57.010Z,10.70
2019-05-01T02:04:47.836Z,10.70
2019-05-01T02:07:17.017Z,10.70
2019-05-01T02:09:46.013Z,10.70
2019-05-01T02:12:15.156Z,10.70
2019-05-01T02:14:44.255Z,10.70
2019-05-01T02:17:13.257Z,10.60
2019-05-01T02:19:42.229Z,10.60
2019-05-01T02:22:11.227Z,10.60
2019-05-01T02:24:40.110Z,10.60
2019-05-01T02:27:13.869Z,10.60
2019-05-01T02:29:48.390Z,10.60
2019-05-01T02:32:20.146Z,10.60
2019-05-01T02:34:50.801Z,10.50
2019-05-01T02:37:20.794Z,10.50
2019-05-01T02:39:50.863Z,10.50
2019-05-01T02:42:22.141Z,10.50
2019-05-01T02:44:52.694Z,10.50
2019-05-01T02:47:28.362Z,10.50
2019-05-01T02:50:10.987Z,10.50
2019-05-01T02:52:41.689Z,10.50
2019-05-01T02:55:20.726Z,10.50
2019-05-01T02:57:49.719Z,10.50
2019-05-01T03:00:19.108Z,10.40
2019-05-01T03:02:48.422Z,10.40
2019-05-01T03:05:17.762Z,10.40
2019-05-01T03:07:46.722Z,10.40
2019-05-01T03:10:16.414Z,10.40
2019-05-01T03:12:48.152Z,10.40
2019-05-01T03:15:18.740Z,10.40
2019-05-01T03:18:02.130Z,10.40
2019-05-01T03:20:37.910Z,10.40
2019-05-01T03:23:28.591Z,10.40
2019-05-01T03:25:57.811Z,10.40
2019-05-01T03:28:26.999Z,10.40
2019-05-01T03:30:56.308Z,10.40
2019-05-01T03:33:25.697Z,10.40
2019-05-01T03:35:54.766Z,10.30
2019-05-01T03:38:24.049Z,10.30
2019-05-01T03:40:53.312Z,10.30
2019-05-01T03:43:23.057Z,10.30
2019-05-01T03:45:52.155Z,10.30
2019-05-01T03:48:21.702Z,10.30
2019-05-01T03:50:50.792Z,10.30
2019-05-01T03:53:19.958Z,10.30
2019-05-01T03:55:49.907Z,10.30
2019-05-01T03:58:19.687Z,10.20
2019-05-01T04:01:06.379Z,10.20
2019-05-01T04:03:39.745Z,10.20
2019-05-01T04:06:08.827Z,10.20
2019-05-01T04:08:38.063Z,10.20
2019-05-01T04:11:07.226Z,10.20
2019-05-01T04:13:36.406Z,10.20
2019-05-01T04:16:05.607Z,10.20
2019-05-01T04:18:34.839Z,10.20
2019-05-01T04:21:04.586Z,10.20
2019-05-01T04:23:33.730Z,10.20
2019-05-01T04:26:03.308Z,10.20
2019-05-01T04:28:42.170Z,10.20
2019-05-01T04:31:22.266Z,10.20
2019-05-01T04:33:53.553Z,10.20
2019-05-01T04:36:28.770Z,10.10
2019-05-01T04:38:57.656Z,10.10
2019-05-01T04:41:27.890Z,10.10
2019-05-01T04:43:56.871Z,10.10
2019-05-01T04:46:26.002Z,10.10
2019-05-01T04:48:54.976Z,10.10
2019-05-01T04:51:23.942Z,10.00
2019-05-01T04:53:53.953Z,10.00
2019-05-01T04:56:22.958Z,10.00
2019-05-01T04:58:52.259Z,10.00
2019-05-01T05:01:21.970Z,10.00
2019-05-01T05:03:51.378Z,10.00
2019-05-01T05:06:20.473Z,10.10
2019-05-01T05:08:49.590Z,10.10
2019-05-01T05:11:23.161Z,10.10
2019-05-01T05:14:12.370Z,10.10
2019-05-01T05:16:48.346Z,10.10
2019-05-01T05:19:17.710Z,10.10
2019-05-01T05:21:47.330Z,10.10
2019-05-01T05:24:17.264Z,10.10
2019-05-01T05:26:46.432Z,10.10
2019-05-01T05:29:19.420Z,10.10
2019-05-01T05:31:48.599Z,10.10
2019-05-01T05:34:20.916Z,10.10
2019-05-01T05:36:51.498Z,10.10
2019-05-01T05:39:32.462Z,10.10
2019-05-01T05:42:04.185Z,10.10
2019-05-01T05:44:34.136Z,10.10
2019-05-01T05:47:03.102Z,10.10
2019-05-01T05:49:32.998Z,10.20
2019-05-01T05:52:27.676Z,10.10
2019-05-01T05:55:16.481Z,10.10
2019-05-01T05:58:01.153Z,10.20
2019-05-01T06:00:55.331Z,10.20
2019-05-01T06:03:44.618Z,10.20
2019-05-01T06:06:39.488Z,10.20
2019-05-01T06:09:13.925Z,10.20
2019-05-01T06:11:50.394Z,10.20
2019-05-01T06:14:45.748Z,10.20
2019-05-01T06:17:28.495Z,10.20
2019-05-01T06:20:01.567Z,10.20
2019-05-01T06:22:50.494Z,10.20
2019-05-01T06:25:25.618Z,10.20
2019-05-01T06:27:54.625Z,10.30
2019-05-01T06:30:23.778Z,10.30
2019-05-01T06:32:52.748Z,10.30
2019-05-01T06:35:21.746Z,10.30
2019-05-01T06:38:00.691Z,10.30
2019-05-01T06:40:39.290Z,10.30
2019-05-01T06:43:14.104Z,10.30
2019-05-01T06:45:51.703Z,10.30
2019-05-01T06:48:19.694Z,10.40
2019-05-01T06:50:52.477Z,10.40
2019-05-01T06:53:22.205Z,10.40
2019-05-01T06:55:51.962Z,10.40
2019-05-01T06:58:22.226Z,10.50
2019-05-01T07:00:52.053Z,10.40
2019-05-01T07:03:21.701Z,10.50
2019-05-01T07:05:54.527Z,10.50
2019-05-01T07:08:24.724Z,10.50
2019-05-01T07:10:53.762Z,10.50
2019-05-01T07:13:22.976Z,10.60
2019-05-01T07:15:52.026Z,10.60
2019-05-01T07:18:24.111Z,10.60
2019-05-01T07:20:53.509Z,10.60
2019-05-01T07:23:23.837Z,10.70
2019-05-01T07:25:52.868Z,10.70
2019-05-01T07:28:22.592Z,10.70
2019-05-01T07:30:56.069Z,10.70
2019-05-01T07:33:25.396Z,10.80
2019-05-01T07:35:54.515Z,10.80
2019-05-01T07:38:23.632Z,10.80
2019-05-01T07:40:52.720Z,10.90
2019-05-01T07:43:39.956Z,10.80
2019-05-01T07:46:34.035Z,10.90
2019-05-01T07:49:03.908Z,10.90
2019-05-01T07:51:32.901Z,10.90
2019-05-01T07:54:04.141Z,11.00
2019-05-01T07:56:33.534Z,11.00
2019-05-01T07:59:02.608Z,11.00
2019-05-01T08:01:57.770Z,11.00
2019-05-01T08:04:36.004Z,11.10
2019-05-01T08:06:58.707Z,11.10
2019-05-01T08:09:27.787Z,11.10
2019-05-01T08:11:56.719Z,11.20
2019-05-01T08:14:25.712Z,11.20
2019-05-01T08:16:54.585Z,11.20
2019-05-01T08:19:54.858Z,11.30
2019-05-01T08:22:26.278Z,11.30
2019-05-01T08:24:58.610Z,11.40
2019-05-01T08:27:45.188Z,11.40
2019-05-01T08:30:35.655Z,11.50
2019-05-01T08:33:14.550Z,11.50
2019-05-01T08:35:43.490Z,11.50
2019-05-01T08:38:12.445Z,11.60
2019-05-01T08:40:41.489Z,11.60
2019-05-01T08:43:13.616Z,11.70
2019-05-01T08:46:04.846Z,11.70
2019-05-01T08:48:41.496Z,11.70
2019-05-01T08:51:10.501Z,11.80
2019-05-01T08:53:39.494Z,11.80
2019-05-01T08:56:09.777Z,11.80
2019-05-01T08:58:38.943Z,11.90
2019-05-01T09:01:10.820Z,12.00
2019-05-01T09:03:39.099Z,12.00
2019-05-01T09:06:08.083Z,12.00
2019-05-01T09:08:36.969Z,12.00
2019-05-01T09:11:05.985Z,12.00
2019-05-01T09:13:34.854Z,12.00
2019-05-01T09:16:03.858Z,12.10
2019-05-01T09:18:32.723Z,12.10
2019-05-01T09:21:01.698Z,12.10
2019-05-01T09:23:34.139Z,12.10
2019-05-01T09:26:15.918Z,12.00
2019-05-01T09:28:46.717Z,12.10
2019-05-01T09:31:16.830Z,12.10
2019-05-01T09:33:45.757Z,12.20
2019-05-01T09:36:14.984Z,12.20
2019-05-01T09:38:43.970Z,12.30
2019-05-01T09:41:13.009Z,12.30
2019-05-01T09:43:41.945Z,12.40
2019-05-01T09:46:11.462Z,12.40
2019-05-01T09:48:40.722Z,12.50
2019-05-01T09:51:27.551Z,12.50
2019-05-01T09:54:19.947Z,12.50
2019-05-01T09:56:49.338Z,12.60
2019-05-01T09:59:19.103Z,12.60
2019-05-01T10:01:48.183Z,12.60
2019-05-01T10:04:17.239Z,12.70
2019-05-01T10:06:47.781Z,12.80
2019-05-01T10:09:18.055Z,12.80
2019-05-01T10:11:47.270Z,12.90
2019-05-01T10:14:16.258Z,13.00
2019-05-01T10:16:45.174Z,13.00
2019-05-01T10:19:14.376Z,13.20
2019-05-01T10:21:43.278Z,13.20
2019-05-01T10:24:12.310Z,13.20
2019-05-01T10:26:43.094Z,13.30
2019-05-01T10:29:29.799Z,13.40
2019-05-01T10:32:16.959Z,13.50
2019-05-01T10:34:52.391Z,13.50
2019-05-01T10:37:23.541Z,13.60
2019-05-01T10:39:54.069Z,13.60
2019-05-01T10:42:22.707Z,13.70
2019-05-01T10:44:51.654Z,13.70
2019-05-01T10:47:20.498Z,13.80
2019-05-01T10:49:49.454Z,13.80
2019-05-01T10:52:18.406Z,13.90
2019-05-01T10:54:47.242Z,14.00
2019-05-01T10:57:16.307Z,14.10
2019-05-01T10:59:45.125Z,14.20
2019-05-01T11:02:15.834Z,14.10
2019-05-01T11:04:44.651Z,14.20
2019-05-01T11:07:13.837Z,14.30
2019-05-01T11:09:43.096Z,14.40
2019-05-01T11:12:12.119Z,14.50
2019-05-01T11:14:42.992Z,14.60
2019-05-01T11:17:12.189Z,14.60
2019-05-01T11:19:41.890Z,14.60
2019-05-01T11:22:10.847Z,14.70
2019-05-01T11:24:39.714Z,14.70
2019-05-01T11:27:08.673Z,14.70
2019-05-01T11:29:37.665Z,14.80
2019-05-01T11:32:28.762Z,14.90
2019-05-01T11:35:19.538Z,15.00
2019-05-01T11:38:02.049Z,15.00
2019-05-01T11:40:43.386Z,15.00
2019-05-01T11:43:13.093Z,15.00
2019-05-01T11:45:42.205Z,14.90
2019-05-01T11:48:11.165Z,14.90
2019-05-01T11:50:40.110Z,14.90
2019-05-01T11:53:09.181Z,14.90
2019-05-01T11:55:38.166Z,15.00
2019-05-01T11:58:07.260Z,15.00
2019-05-01T12:00:36.231Z,15.10
2019-05-01T12:03:05.677Z,15.10
2019-05-01T12:05:34.597Z,15.20
2019-05-01T12:08:03.590Z,15.30
2019-05-01T12:10:34.067Z,15.30
2019-05-01T12:13:02.911Z,15.40
2019-05-01T12:15:39.254Z,15.20
2019-05-01T12:18:08.273Z,15.20
2019-05-01T12:20:37.103Z,15.20
2019-05-01T12:23:06.285Z,15.20
2019-05-01T12:25:35.281Z,15.30
2019-05-01T12:28:04.332Z,15.20
2019-05-01T12:30:33.295Z,15.20
2019-05-01T12:33:02.273Z,15.20
2019-05-01T12:35:31.282Z,15.20
2019-05-01T12:38:02.626Z,15.30
2019-05-01T12:40:31.738Z,15.30
2019-05-01T12:43:01.042Z,15.40
2019-05-01T12:45:30.026Z,15.40
2019-05-01T12:48:00.918Z,15.50
2019-05-01T12:50:30.034Z,15.50
2019-05-01T12:53:14.578Z,15.40
2019-05-01T12:56:05.661Z,15.50
2019-05-01T12:58:36.488Z,15.60
2019-05-01T13:01:05.738Z,15.60
2019-05-01T13:03:34.782Z,15.70
2019-05-01T13:06:03.713Z,15.80
2019-05-01T13:08:32.637Z,15.70
2019-05-01T13:11:03.306Z,15.70
2019-05-01T13:13:32.515Z,15.80
2019-05-01T13:16:01.431Z,15.80
2019-05-01T13:18:30.332Z,15.80
2019-05-01T13:20:59.162Z,15.70
2019-05-01T13:23:28.520Z,15.70
2019-05-01T13:26:03.661Z,15.80
2019-05-01T13:28:55.227Z,15.70
2019-05-01T13:31:35.748Z,15.70
2019-05-01T13:34:04.827Z,15.80
2019-05-01T13:36:33.850Z,15.80
2019-05-01T13:39:03.071Z,15.90
2019-05-01T13:41:32.081Z,15.90
2019-05-01T13:44:01.233Z,15.80
2019-05-01T13:46:30.093Z,15.80
2019-05-01T13:48:59.118Z,15.80
2019-05-01T13:51:28.239Z,15.90
2019-05-01T13:53:57.206Z,15.90
2019-05-01T13:56:26.970Z,16.00
2019-05-01T13:58:55.989Z,15.90
2019-05-01T14:01:24.932Z,15.90
2019-05-01T14:03:53.801Z,15.90
2019-05-01T14:06:22.828Z,15.80
2019-05-01T14:08:51.776Z,15.70
2019-05-01T14:11:21.014Z,15.70
2019-05-01T14:13:50.041Z,15.70
2019-05-01T14:16:19.083Z,15.70
2019-05-01T14:18:48.039Z,15.80
2019-05-01T14:21:34.146Z,15.80
2019-05-01T14:24:25.478Z,15.80
2019-05-01T14:26:54.453Z,15.80
2019-05-01T14:29:23.441Z,15.70
2019-05-01T14:31:52.478Z,15.70
2019-05-01T14:34:21.546Z,15.60
2019-05-01T14:36:50.510Z,15.50
2019-05-01T14:39:19.422Z,15.50
2019-05-01T14:41:48.333Z,15.50
2019-05-01T14:44:17.385Z,15.50
2019-05-01T14:46:46.449Z,15.40
2019-05-01T14:49:15.733Z,15.30
2019-05-01T14:51:44.631Z,15.30
2019-05-01T14:54:13.644Z,15.20
2019-05-01T14:56:43.524Z,15.30
2019-05-01T14:59:12.609Z,15.20
2019-05-01T15:01:41.678Z,15.10
2019-05-01T15:04:10.624Z,15.20
2019-05-01T15:06:39.625Z,15.20
2019-05-01T15:09:09.365Z,15.20
2019-05-01T15:11:39.834Z,15.20
2019-05-01T15:14:27.529Z,15.10
2019-05-01T15:17:21.537Z,15.00
2019-05-01T15:19:59.519Z,15.10
2019-05-01T15:22:28.454Z,15.20
2019-05-01T15:24:57.285Z,15.20
2019-05-01T15:27:26.202Z,15.20
2019-05-01T15:29:55.106Z,15.20
2019-05-01T15:32:24.007Z,15.20
2019-05-01T15:34:53.046Z,15.10
2019-05-01T15:37:21.926Z,15.00
2019-05-01T15:40:03.793Z,15.00
2019-05-01T15:42:40.738Z,15.00
2019-05-01T15:45:09.822Z,15.00
2019-05-01T15:47:38.721Z,15.00
2019-05-01T15:50:08.251Z,14.90
2019-05-01T15:52:37.619Z,14.90
2019-05-01T15:55:07.276Z,14.90
2019-05-01T15:57:36.210Z,14.80
2019-05-01T16:00:07.602Z,14.90
2019-05-01T16:02:36.632Z,14.90
2019-05-01T16:05:07.494Z,14.90
2019-05-01T16:07:36.521Z,14.90
2019-05-01T16:10:09.220Z,14.90
2019-05-01T16:12:49.934Z,14.80
2019-05-01T16:15:24.907Z,14.80
2019-05-01T16:17:53.714Z,14.70
2019-05-01T16:20:22.681Z,14.70
2019-05-01T16:23:10.937Z,14.80
2019-05-01T16:25:39.954Z,14.80
2019-05-01T16:28:08.785Z,14.80
2019-05-01T16:30:37.879Z,14.80
2019-05-01T16:33:07.214Z,14.80
2019-05-01T16:35:36.291Z,14.90
2019-05-01T16:38:07.041Z,14.90
2019-05-01T16:40:55.079Z,14.80
2019-05-01T16:43:24.019Z,14.80
2019-05-01T16:45:52.969Z,14.60
2019-05-01T16:48:21.913Z,14.50
2019-05-01T16:50:50.829Z,14.50
2019-05-01T16:53:20.289Z,14.50
2019-05-01T16:55:54.321Z,14.50
2019-05-01T16:58:23.962Z,14.40
2019-05-01T17:01:12.582Z,14.40
2019-05-01T17:04:01.394Z,14.40
2019-05-01T17:06:52.461Z,14.30
2019-05-01T17:09:52.946Z,14.30
2019-05-01T17:12:25.705Z,14.30
2019-05-01T17:14:54.693Z,14.30
2019-05-01T17:17:24.522Z,14.30
2019-05-01T17:19:53.390Z,14.20
2019-05-01T17:22:22.353Z,14.20
2019-05-01T17:24:51.266Z,14.20
2019-05-01T17:27:20.168Z,14.10
2019-05-01T17:29:49.115Z,14.20
2019-05-01T17:32:18.922Z,14.20
2019-05-01T17:34:47.952Z,14.20
2019-05-01T17:37:16.961Z,14.20
2019-05-01T17:39:45.793Z,14.10
2019-05-01T17:42:14.806Z,14.10
2019-05-01T17:44:43.703Z,14.10
2019-05-01T17:47:12.836Z,14.00
2019-05-01T17:49:44.931Z,14.00
2019-05-01T17:52:12.242Z,14.00
2019-05-01T17:54:41.238Z,14.00
2019-05-01T17:57:29.354Z,13.90
2019-05-01T18:00:00.159Z,13.90
2019-05-01T18:02:35.931Z,13.90
2019-05-01T18:05:12.225Z,13.90
2019-05-01T18:07:41.131Z,13.90
2019-05-01T18:10:10.166Z,14.00
2019-05-01T18:12:39.109Z,13.90
2019-05-01T18:15:08.326Z,13.90
2019-05-01T18:17:37.263Z,13.90
2019-05-01T18:20:06.853Z,13.90
2019-05-01T18:22:55.404Z,13.90
2019-05-01T18:25:33.080Z,13.80
2019-05-01T18:28:14.034Z,13.80
2019-05-01T18:30:43.340Z,13.70
2019-05-01T18:33:12.398Z,13.70
2019-05-01T18:35:44.904Z,13.70
2019-05-01T18:38:21.818Z,13.60
2019-05-01T18:40:54.821Z,13.50
2019-05-01T18:43:26.938Z,13.50
2019-05-01T18:45:56.935Z,13.50
2019-05-01T18:48:26.143Z,13.50
2019-05-01T18:50:56.492Z,13.50
2019-05-01T18:53:25.501Z,13.40
2019-05-01T18:55:54.744Z,13.40
2019-05-01T18:58:23.819Z,13.30
2019-05-01T19:00:52.774Z,13.20
2019-05-01T19:03:22.599Z,13.20
2019-05-01T19:05:51.842Z,13.10
2019-05-01T19:08:20.851Z,13.10
2019-05-01T19:10:49.913Z,13.10
2019-05-01T19:13:19.518Z,13.00
2019-05-01T19:15:48.579Z,12.90
2019-05-01T19:18:17.603Z,12.80
2019-05-01T19:20:58.969Z,12.70
2019-05-01T19:23:17.350Z,12.70
2019-05-01T19:25:46.293Z,12.70
2019-05-01T19:28:15.835Z,12.60
2019-05-01T19:30:44.990Z,12.60
2019-05-01T19:33:14.411Z,12.50
2019-05-01T19:35:43.374Z,12.40
2019-05-01T19:38:12.516Z,12.30
2019-05-01T19:40:41.459Z,12.30
2019-05-01T19:43:10.449Z,12.20
2019-05-01T19:45:39.370Z,12.10
2019-05-01T19:48:08.456Z,12.10
2019-05-01T19:50:39.409Z,12.00
2019-05-01T19:53:10.180Z,12.00
2019-05-01T19:55:39.994Z,11.90
2019-05-01T19:58:09.859Z,11.90
2019-05-01T20:01:03.867Z,11.80
2019-05-01T20:03:36.405Z,11.70
2019-05-01T20:06:05.681Z,11.70
2019-05-01T20:08:33.648Z,11.60
2019-05-01T20:11:02.710Z,11.60
2019-05-01T20:13:31.846Z,11.50
2019-05-01T20:16:00.760Z,11.50
2019-05-01T20:18:29.653Z,11.40
2019-05-01T20:20:58.614Z,11.30
2019-05-01T20:23:31.531Z,11.30
2019-05-01T20:25:58.280Z,11.20
2019-05-01T20:28:28.407Z,11.20
2019-05-01T20:30:57.655Z,11.10
2019-05-01T20:33:26.955Z,11.10
2019-05-01T20:36:00.310Z,11.10
2019-05-01T20:38:26.509Z,11.00
2019-05-01T20:40:55.485Z,11.00
2019-05-01T20:43:24.510Z,10.90
2019-05-01T20:45:53.470Z,10.80
2019-05-01T20:48:23.549Z,10.80
2019-05-01T20:50:53.182Z,10.80
2019-05-01T20:53:22.061Z,10.70
2019-05-01T20:55:58.724Z,10.70
2019-05-01T20:58:27.907Z,10.60
2019-05-01T21:01:01.934Z,10.60
2019-05-01T21:03:31.201Z,10.50
2019-05-01T21:06:15.478Z,10.50
2019-05-01T21:09:08.313Z,10.50
2019-05-01T21:11:42.117Z,10.40
2019-05-01T21:14:19.677Z,10.40
2019-05-01T21:16:44.477Z,10.30
2019-05-01T21:19:13.974Z,10.30
2019-05-01T21:21:43.449Z,10.20
2019-05-01T21:24:13.955Z,10.20
2019-05-01T21:26:43.468Z,10.10
2019-05-01T21:29:14.097Z,10.10
2019-05-01T21:31:44.041Z,10.10
2019-05-01T21:34:14.513Z,10.00
2019-05-01T21:36:47.616Z,10.00
2019-05-01T21:39:14.993Z,9.90
2019-05-01T21:41:45.017Z,9.90
2019-05-01T21:44:13.895Z,9.80
2019-05-01T21:46:43.187Z,9.80
2019-05-01T21:49:13.041Z,9.70
2019-05-01T21:51:45.887Z,9.70
2019-05-01T21:54:16.148Z,9.70
2019-05-01T21:56:43.663Z,9.60
2019-05-01T21:59:12.665Z,9.60
2019-05-01T22:01:41.814Z,9.60
2019-05-01T22:04:10.642Z,9.50
2019-05-01T22:06:39.583Z,9.50
2019-05-01T22:09:16.496Z,9.40
2019-05-01T22:11:45.950Z,9.40
2019-05-01T22:14:22.658Z,9.40
2019-05-01T22:16:53.129Z,9.30
2019-05-01T22:19:23.230Z,9.30
2019-05-01T22:22:02.076Z,9.30
2019-05-01T22:24:38.441Z,9.30
2019-05-01T22:27:11.063Z,9.20
2019-05-01T22:29:46.001Z,9.20
2019-05-01T22:32:21.318Z,9.10
2019-05-01T22:35:09.369Z,9.10
2019-05-01T22:37:38.249Z,9.10
2019-05-01T22:40:09.662Z,9.10
2019-05-01T22:42:38.644Z,9.00
2019-05-01T22:45:08.551Z,9.00
2019-05-01T22:47:37.513Z,9.00
2019-05-01T22:50:08.304Z,8.90
2019-05-01T22:52:37.238Z,8.90
2019-05-01T22:55:07.404Z,8.90
2019-05-01T22:57:36.433Z,8.80
2019-05-01T23:00:06.486Z,8.80
2019-05-01T23:02:39.649Z,8.80
2019-05-01T23:05:09.309Z,8.70
2019-05-01T23:07:38.595Z,8.70
2019-05-01T23:10:09.027Z,8.70
2019-05-01T23:12:37.926Z,8.60
2019-05-01T23:15:13.438Z,8.60
2019-05-01T23:17:45.274Z,8.60
2019-05-01T23:20:15.170Z,8.60
2019-05-01T23:22:44.049Z,8.60
2019-05-01T23:25:13.229Z,8.50
2019-05-01T23:27:42.220Z,8.50
2019-05-01T23:30:13.094Z,8.50
2019-05-01T23:32:42.114Z,8.50
2019-05-01T23:35:11.189Z,8.40
2019-05-01T23:37:40.114Z,8.40
2019-05-01T23:40:10.972Z,8.40
2019-05-01T23:42:43.318Z,8.30
2019-05-01T23:45:10.949Z,8.30
2019-05-01T23:47:39.830Z,8.30
2019-05-01T23:50:09.154Z,8.20
2019-05-01T23:52:38.792Z,8.20
2019-05-01T23:55:08.691Z,8.20
2019-05-01T23:57:37.584Z,8.20
